Time;durP1;ratioP1;P1;durP2;ratioP2;P2;SDS_P1;SDS_P2;PMS_P1;PMS_P2;Temp;Humidity;BMP_temperature;BMP_pressure;BME280_temperature;BME280_humidity;BME280_pressure;Samples;Min_cycle;Max_cycle;Signal;HPM_P1;HPM_P2
2023/12/20 00:02:14;;;;;;;22.75;4.78;;;;;;;6.20;100.00;101525.25;5085578;28;20488;-76
2023/12/20 00:04:39;;;;;;;15.07;4.82;;;;;;;6.22;100.00;101534.88;5086843;28;20044;-76
2023/12/20 00:07:11;;;;;;;16.08;4.05;;;;;;;6.15;100.00;101535.13;5074148;28;20036;-76
2023/12/20 00:09:36;;;;;;;16.75;4.55;;;;;;;6.10;100.00;101542.38;5090801;28;20133;-76
2023/12/20 00:12:11;;;;;;;16.17;4.63;;;;;;;6.11;100.00;101523.78;5082058;28;20514;-77
2023/12/20 00:14:36;;;;;;;17.20;4.72;;;;;;;6.05;100.00;101517.84;5083183;28;20032;-76
2023/12/20 00:17:10;;;;;;;20.63;5.18;;;;;;;6.06;100.00;101520.41;5086758;28;20143;-76
2023/12/20 00:19:36;;;;;;;20.38;5.28;;;;;;;6.02;100.00;101517.91;5051015;28;21372;-76
2023/12/20 00:22:10;;;;;;;17.77;4.97;;;;;;;5.99;100.00;101524.19;5094292;28;20028;-76
2023/12/20 00:24:36;;;;;;;17.67;5.18;;;;;;;5.91;100.00;101529.72;5091224;28;20028;-77
2023/12/20 00:27:09;;;;;;;23.33;5.80;;;;;;;5.93;100.00;101540.28;5093525;28;20904;-77
2023/12/20 00:29:35;;;;;;;22.65;5.50;;;;;;;5.93;100.00;101535.88;5097296;28;20227;-76
2023/12/20 00:32:01;;;;;;;20.75;5.55;;;;;;;5.95;100.00;101536.66;5094323;28;20049;-77
2023/12/20 00:34:26;;;;;;;24.98;5.80;;;;;;;6.00;100.00;101533.00;5094503;28;20035;-76
2023/12/20 00:36:52;;;;;;;17.85;6.43;;;;;;;6.01;100.00;101534.72;5069972;28;21235;-76
2023/12/20 00:39:17;;;;;;;13.23;5.47;;;;;;;6.03;100.00;101539.06;5094539;28;20728;-76
2023/12/20 00:41:42;;;;;;;25.27;7.40;;;;;;;6.11;100.00;101534.38;5093127;28;22135;-76
2023/12/20 00:44:08;;;;;;;28.17;6.70;;;;;;;6.09;100.00;101532.69;5090903;28;21002;-75
2023/12/20 00:46:34;;;;;;;34.17;6.80;;;;;;;6.12;100.00;101529.94;5062008;28;20047;-76
2023/12/20 00:49:06;;;;;;;25.00;7.40;;;;;;;6.03;100.00;101532.91;5089811;28;20040;-77
2023/12/20 00:51:40;;;;;;;23.90;6.85;;;;;;;6.00;100.00;101543.59;5067993;28;20568;-77
2023/12/20 00:54:06;;;;;;;26.05;6.25;;;;;;;5.99;100.00;101534.78;5097816;27;20167;-77
2023/12/20 00:56:33;;;;;;;26.77;6.75;;;;;;;5.94;100.00;101527.00;5110127;27;20032;-76
2023/12/20 00:58:59;;;;;;;23.52;7.07;;;;;;;5.93;100.00;101532.34;5098611;28;20036;-76
2023/12/20 01:01:32;;;;;;;27.58;7.15;;;;;;;5.90;100.00;101527.97;5090251;28;20036;-75
2023/12/20 01:03:58;;;;;;;26.48;6.78;;;;;;;5.90;100.00;101522.69;5104594;27;20036;-75
2023/12/20 01:06:24;;;;;;;28.83;6.97;;;;;;;5.88;100.00;101526.31;5103326;27;20874;-76
2023/12/20 01:08:52;;;;;;;16.95;5.65;;;;;;;5.84;100.00;101525.53;5114181;27;20039;-76
2023/12/20 01:11:18;;;;;;;34.53;7.30;;;;;;;5.82;100.00;101530.00;5104874;27;20038;-75
2023/12/20 01:13:43;;;;;;;31.48;6.97;;;;;;;5.78;100.00;101528.38;5105097;27;20043;-76
2023/12/20 01:16:11;;;;;;;36.30;7.03;;;;;;;5.80;100.00;101528.34;5106320;27;20675;-76
2023/12/20 01:18:42;;;;;;;24.30;5.38;;;;;;;5.77;100.00;101529.28;5120718;27;20032;-77
2023/12/20 01:21:08;;;;;;;30.08;5.68;;;;;;;5.75;100.00;101523.19;5123604;27;20136;-77
2023/12/20 01:23:33;;;;;;;24.23;5.70;;;;;;;5.71;100.00;101530.34;5110336;27;20082;-77
2023/12/20 01:26:07;;;;;;;23.98;6.07;;;;;;;5.73;100.00;101525.03;5104858;27;20031;-76
2023/12/20 01:28:33;;;;;;;25.98;5.70;;;;;;;5.74;100.00;101517.94;5115009;27;20035;-77
2023/12/20 01:30:59;;;;;;;28.83;6.25;;;;;;;5.74;100.00;101517.94;5103900;27;20035;-78
2023/12/20 01:33:24;;;;;;;33.33;5.88;;;;;;;5.70;100.00;101525.13;5125737;27;20428;-75
2023/12/20 01:35:50;;;;;;;34.88;6.15;;;;;;;5.68;100.00;101521.66;5105124;27;20024;-76
2023/12/20 01:38:18;;;;;;;24.75;6.13;;;;;;;5.69;100.00;101510.16;5106006;27;20047;-75
2023/12/20 01:40:44;;;;;;;26.60;5.43;;;;;;;5.63;100.00;101519.16;5116397;27;20656;-75
2023/12/20 01:43:12;;;;;;;34.05;6.85;;;;;;;5.63;100.00;101520.94;5111913;27;20673;-77
2023/12/20 01:45:38;;;;;;;30.25;5.47;;;;;;;5.65;100.00;101529.69;5095774;27;20036;-75
2023/12/20 01:48:07;;;;;;;29.33;6.13;;;;;;;5.59;100.00;101521.94;5121635;27;20042;-76
2023/12/20 01:50:37;;;;;;;24.88;6.22;;;;;;;5.60;100.00;101524.53;5099211;27;20054;-76
2023/12/20 01:53:09;;;;;;;29.02;5.97;;;;;;;5.58;100.00;101528.16;5090627;27;20067;-75
2023/12/20 01:55:40;;;;;;;37.22;6.15;;;;;;;5.58;100.00;101533.47;5110134;27;20048;-76
2023/12/20 01:58:10;;;;;;;31.67;6.68;;;;;;;5.61;100.00;101523.63;5106179;27;20123;-76
2023/12/20 02:00:38;;;;;;;35.13;5.55;;;;;;;5.57;100.00;101524.66;5097086;27;20858;-77
2023/12/20 02:03:05;;;;;;;32.92;6.03;;;;;;;5.57;100.00;101529.06;5084363;27;20032;-77
2023/12/20 02:05:38;;;;;;;37.22;7.72;;;;;;;5.60;100.00;101519.25;5114552;27;20040;-75
2023/12/20 02:08:07;;;;;;;30.15;6.03;;;;;;;5.70;100.00;101519.81;5097339;27;20118;-77
2023/12/20 02:10:32;;;;;;;23.90;5.40;;;;;;;5.78;100.00;101525.75;5109274;27;20035;-77
2023/12/20 02:12:58;;;;;;;33.47;5.88;;;;;;;5.75;100.00;101515.25;5094487;27;20963;-76
2023/12/20 02:15:24;;;;;;;29.63;6.28;;;;;;;5.76;100.00;101516.97;5115250;27;20411;-76
2023/12/20 02:17:50;;;;;;;28.83;6.78;;;;;;;5.83;100.00;101517.66;5093717;27;20028;-76
2023/12/20 02:20:16;;;;;;;31.88;6.15;;;;;;;5.92;100.00;101520.91;5101767;27;20054;-75
2023/12/20 02:22:41;;;;;;;27.30;4.88;;;;;;;5.99;100.00;101523.34;5092182;27;20034;-76
2023/12/20 02:25:07;;;;;;;26.52;5.78;;;;;;;5.93;100.00;101512.03;5106899;27;20541;-76
2023/12/20 02:27:34;;;;;;;29.05;5.95;;;;;;;5.93;100.00;101506.75;5103587;27;20032;-76
2023/12/20 02:30:06;;;;;;;30.25;5.22;;;;;;;5.90;100.00;101508.59;5090577;27;20101;-77
2023/12/20 02:32:34;;;;;;;26.63;4.88;;;;;;;5.84;100.00;101501.72;5107468;27;20046;-76
2023/12/20 02:35:00;;;;;;;18.70;4.72;;;;;;;5.81;100.00;101499.16;5103105;27;20147;-76
2023/12/20 02:37:29;;;;;;;32.80;6.20;;;;;;;5.80;100.00;101504.50;5100389;27;20035;-77
2023/12/20 02:39:54;;;;;;;27.13;6.28;;;;;;;5.76;100.00;101503.75;5099551;27;20083;-76
2023/12/20 02:42:20;;;;;;;29.52;6.38;;;;;;;5.73;100.00;101495.91;5083734;27;20950;-76
2023/12/20 02:44:45;;;;;;;27.70;5.97;;;;;;;5.71;100.00;101495.09;5105943;27;20569;-78
2023/12/20 02:47:11;;;;;;;20.33;5.38;;;;;;;5.64;100.00;101486.50;5103637;27;20482;-77
2023/12/20 02:49:37;;;;;;;26.40;5.90;;;;;;;5.66;100.00;101492.59;5106796;27;20922;-78
2023/12/20 02:52:08;;;;;;;28.40;6.22;;;;;;;5.74;100.00;101494.13;5092653;27;20143;-78
2023/12/20 02:54:37;;;;;;;31.50;7.10;;;;;;;5.77;100.00;101492.22;5099399;27;20055;-78
2023/12/20 02:57:04;;;;;;;46.83;7.80;;;;;;;5.78;100.00;101485.19;5108400;27;20032;-78
2023/12/20 02:59:40;;;;;;;43.45;8.30;;;;;;;5.83;100.00;101481.47;5094959;27;20040;-78
2023/12/20 03:02:08;;;;;;;36.40;7.18;;;;;;;5.80;100.00;101486.84;5113251;27;20039;-78
2023/12/20 03:04:33;;;;;;;33.53;7.30;;;;;;;5.76;100.00;101482.56;5101097;27;20042;-78
2023/12/20 03:06:59;;;;;;;33.20;8.27;;;;;;;5.81;100.00;101478.00;5086667;27;20556;-78
2023/12/20 03:09:24;;;;;;;31.10;8.75;;;;;;;5.88;100.00;101474.25;5079993;27;20044;-76
2023/12/20 03:11:50;;;;;;;43.08;8.50;;;;;;;5.93;100.00;101479.41;5108493;27;20473;-78
2023/12/20 03:14:15;;;;;;;34.78;8.07;;;;;;;6.03;100.00;101472.03;5104350;27;20043;-77
2023/12/20 03:16:50;;;;;;;36.47;7.88;;;;;;;5.99;100.00;101467.75;5108085;27;20054;-78
2023/12/20 03:19:19;;;;;;;26.20;6.38;;;;;;;6.05;100.00;101463.09;5080513;27;20065;-77
2023/12/20 03:21:45;;;;;;;32.55;8.45;;;;;;;6.05;100.00;101464.88;5084634;27;20039;-77
2023/12/20 03:24:10;;;;;;;28.90;7.20;;;;;;;5.99;100.00;101455.38;5105816;27;20084;-77
2023/12/20 03:26:36;;;;;;;29.83;7.20;;;;;;;5.95;100.00;101454.59;5087980;27;20044;-78
2023/12/20 03:29:07;;;;;;;43.55;7.57;;;;;;;5.86;100.00;101452.25;5093987;28;20062;-78
2023/12/20 03:31:33;;;;;;;25.27;6.55;;;;;;;5.83;100.00;101452.34;5109874;27;20036;-77
2023/12/20 03:33:58;;;;;;;39.85;7.15;;;;;;;5.76;100.00;101458.75;5092825;27;20040;-76
2023/12/20 03:36:24;;;;;;;37.22;6.50;;;;;;;5.71;100.00;101463.34;5112197;27;20028;-76
2023/12/20 03:38:49;;;;;;;27.45;7.13;;;;;;;5.70;100.00;101465.13;5094389;27;20039;-76
2023/12/20 03:41:15;;;;;;;28.80;5.85;;;;;;;5.66;100.00;101454.69;5107131;27;20175;-77
2023/12/20 03:43:41;;;;;;;29.00;5.95;;;;;;;5.62;100.00;101455.69;5106630;27;20067;-76
2023/12/20 03:46:08;;;;;;;28.52;7.47;;;;;;;5.62;100.00;101450.41;5106839;27;20802;-77
2023/12/20 03:48:34;;;;;;;28.85;6.93;;;;;;;5.58;100.00;101452.31;5080663;27;20036;-77
2023/12/20 03:51:02;;;;;;;38.97;7.13;;;;;;;5.57;100.00;101455.88;5105186;27;20889;-76
2023/12/20 03:53:28;;;;;;;35.35;7.70;;;;;;;5.55;100.00;101457.69;5102144;27;20071;-76
2023/12/20 03:55:53;;;;;;;26.27;6.30;;;;;;;5.61;100.00;101443.38;5117480;27;20040;-77
2023/12/20 03:58:19;;;;;;;36.40;7.03;;;;;;;5.56;100.00;101450.63;5101970;27;20063;-76
2023/12/20 04:00:45;;;;;;;32.10;6.35;;;;;;;5.55;100.00;101447.09;5107693;27;20032;-76
2023/12/20 04:03:13;;;;;;;38.97;7.40;;;;;;;5.48;100.00;101448.25;5101709;27;20549;-77
2023/12/20 04:05:40;;;;;;;36.65;6.90;;;;;;;5.50;100.00;101458.75;5112125;27;20034;-77
2023/12/20 04:08:12;;;;;;;34.50;7.10;;;;;;;5.50;100.00;101456.97;5096387;27;20039;-77
2023/12/20 04:10:43;;;;;;;42.60;7.05;;;;;;;5.50;100.00;101462.25;5106713;27;20036;-77
2023/12/20 04:13:08;;;;;;;46.75;7.32;;;;;;;5.49;100.00;101462.31;5107767;27;20032;-77
2023/12/20 04:15:38;;;;;;;31.48;6.38;;;;;;;5.55;100.00;101468.28;5111940;27;20036;-76
2023/12/20 04:18:07;;;;;;;42.60;7.18;;;;;;;5.51;100.00;101466.63;5094618;27;20837;-76
2023/12/20 04:20:36;;;;;;;28.17;6.28;;;;;;;5.53;100.00;101464.81;5090516;27;20058;-77
2023/12/20 04:23:07;;;;;;;30.35;6.88;;;;;;;5.62;100.00;101459.25;5105394;27;20027;-77
2023/12/20 04:25:33;;;;;;;34.43;7.60;;;;;;;5.68;100.00;101463.47;5112481;27;20921;-76
2023/12/20 04:27:58;;;;;;;26.75;6.40;;;;;;;5.75;100.00;101466.75;5111549;27;20741;-77
2023/12/20 04:30:24;;;;;;;31.58;6.43;;;;;;;5.89;100.00;101461.88;5107489;27;21019;-76
2023/12/20 04:32:50;;;;;;;33.35;6.85;;;;;;;6.01;100.00;101457.97;5113335;27;20397;-76
2023/12/20 04:35:15;;;;;;;29.02;6.10;;;;;;;6.02;100.00;101449.09;5113288;27;20253;-75
2023/12/20 04:37:41;;;;;;;28.65;6.35;;;;;;;5.94;100.00;101442.28;5121324;27;20032;-77
2023/12/20 04:40:08;;;;;;;41.38;6.25;;;;;;;5.86;100.00;101446.09;5102587;27;20035;-76
2023/12/20 04:42:33;;;;;;;35.45;6.45;;;;;;;5.88;100.00;101441.63;5112252;27;20047;-75
2023/12/20 04:45:03;;;;;;;37.80;7.28;;;;;;;5.89;100.00;101443.34;5102655;27;20101;-76
2023/12/20 04:47:31;;;;;;;40.10;7.10;;;;;;;5.95;100.00;101451.09;5115907;27;20042;-76
2023/12/20 04:50:09;;;;;;;36.55;7.18;;;;;;;6.02;100.00;101455.25;5106930;27;20120;-76
2023/12/20 04:52:38;;;;;;;29.63;6.18;;;;;;;5.95;100.00;101443.16;5109887;27;20040;-77
2023/12/20 04:55:07;;;;;;;26.20;6.43;;;;;;;5.87;100.00;101447.81;5100683;27;20533;-77
2023/12/20 04:57:39;;;;;;;28.35;6.78;;;;;;;5.90;100.00;101439.78;5114354;27;20024;-77
2023/12/20 05:00:08;;;;;;;38.78;6.82;;;;;;;5.91;100.00;101442.38;5111368;27;20031;-76
2023/12/20 05:02:35;;;;;;;28.60;6.53;;;;;;;5.93;100.00;101450.31;5109147;27;20036;-77
2023/12/20 05:05:07;;;;;;;35.05;6.80;;;;;;;5.91;100.00;101444.13;5115433;27;20040;-76
2023/12/20 05:07:33;;;;;;;45.20;6.75;;;;;;;6.08;100.00;101443.59;5113664;27;20113;-76
2023/12/20 05:10:00;;;;;;;30.30;6.75;;;;;;;6.07;100.00;101431.25;5103922;27;20043;-77
2023/12/20 05:12:29;;;;;;;38.17;7.68;;;;;;;6.12;100.00;101430.19;5110904;27;20159;-77
2023/12/20 05:14:54;;;;;;;27.77;6.05;;;;;;;6.14;100.00;101424.84;5087344;27;20038;-77
2023/12/20 05:17:20;;;;;;;42.67;7.05;;;;;;;6.20;100.00;101421.97;5091920;27;20031;-76
2023/12/20 05:19:49;;;;;;;31.90;7.30;;;;;;;6.17;100.00;101412.34;5106337;27;20038;-77
2023/12/20 05:22:14;;;;;;;38.05;6.80;;;;;;;6.20;100.00;101416.69;5099489;27;20043;-77
2023/12/20 05:24:43;;;;;;;26.60;6.45;;;;;;;6.20;100.00;101401.66;5089492;28;20032;-77
2023/12/20 05:27:09;;;;;;;32.40;6.70;;;;;;;6.17;100.00;101393.81;5087619;27;20039;-75
2023/12/20 05:29:38;;;;;;;34.25;6.43;;;;;;;6.17;100.00;101399.09;5093040;27;20039;-76
2023/12/20 05:32:13;;;;;;;29.42;6.53;;;;;;;6.15;100.00;101398.31;5104499;27;20074;-77
2023/12/20 05:34:41;;;;;;;29.90;5.93;;;;;;;6.14;100.00;101399.25;5101812;27;20090;-78
2023/12/20 05:37:07;;;;;;;42.50;7.15;;;;;;;6.25;100.00;101404.13;5094409;27;20574;-77
2023/12/20 05:39:41;;;;;;;38.45;5.90;;;;;;;6.24;100.00;101410.38;5118650;27;20105;-77
2023/12/20 05:42:10;;;;;;;37.88;7.15;;;;;;;6.24;100.00;101410.38;5093198;27;20032;-77
2023/12/20 05:44:36;;;;;;;42.97;7.07;;;;;;;6.31;100.00;101408.34;5104477;27;20095;-76
2023/12/20 05:47:08;;;;;;;31.50;7.65;;;;;;;6.33;100.00;101409.16;5089364;27;21125;-78
2023/12/20 05:49:37;;;;;;;33.53;7.63;;;;;;;6.34;100.00;101409.09;5111507;27;20074;-76
2023/12/20 05:52:06;;;;;;;30.23;6.88;;;;;;;6.41;100.00;101407.09;5100718;27;20055;-76
2023/12/20 05:54:37;;;;;;;36.35;6.43;;;;;;;6.35;100.00;101408.19;5113008;27;20044;-76
2023/12/20 05:57:02;;;;;;;29.70;6.15;;;;;;;6.45;100.00;101401.63;5088811;28;20032;-77
2023/12/20 05:59:31;;;;;;;49.50;7.85;;;;;;;6.44;100.00;101399.91;5099945;27;20121;-77
2023/12/20 06:02:07;;;;;;;52.10;7.70;;;;;;;6.46;100.00;101400.69;5112263;27;20372;-77
2023/12/20 06:04:32;;;;;;;34.83;7.78;;;;;;;6.57;100.00;101402.94;5122215;27;20485;-77
2023/12/20 06:07:03;;;;;;;32.53;6.70;;;;;;;6.61;100.00;101407.19;5111901;27;20183;-86
2023/12/20 06:09:32;;;;;;;28.10;6.70;;;;;;;6.63;100.00;101402.72;5078285;27;20131;-77
2023/12/20 06:11:58;;;;;;;40.10;6.88;;;;;;;6.62;100.00;101402.75;5118555;27;20032;-76
2023/12/20 06:14:24;;;;;;;32.65;6.50;;;;;;;6.65;100.00;101403.53;5085291;27;20043;-77
2023/12/20 06:16:50;;;;;;;38.05;7.32;;;;;;;6.67;100.00;101391.06;5103258;27;20463;-76
2023/12/20 06:19:15;;;;;;;26.55;6.70;;;;;;;6.72;100.00;101393.53;5107002;27;20040;-77
2023/12/20 06:21:41;;;;;;;27.33;5.80;;;;;;;6.74;100.00;101394.38;5093413;27;20051;-76
2023/12/20 06:24:06;;;;;;;35.28;6.40;;;;;;;6.79;100.00;101392.41;5100401;27;20118;-76
2023/12/20 06:26:36;;;;;;;33.88;6.22;;;;;;;6.75;100.00;101383.69;5103995;27;20036;-77
2023/12/20 06:29:08;;;;;;;30.30;7.18;;;;;;;6.83;100.00;101379.88;5090149;27;20038;-76
2023/12/20 06:31:34;;;;;;;31.38;5.35;;;;;;;6.82;100.00;101381.66;5107765;27;20032;-77
2023/12/20 06:34:03;;;;;;;29.80;6.22;;;;;;;6.88;100.00;101381.44;5112081;27;20082;-77
2023/12/20 06:36:34;;;;;;;38.20;5.88;;;;;;;6.85;100.00;101373.59;5095342;27;20977;-77
2023/12/20 06:38:59;;;;;;;40.45;6.88;;;;;;;6.83;100.00;101366.63;5077673;28;20032;-77
2023/12/20 06:41:29;;;;;;;34.95;5.90;;;;;;;6.88;100.00;101362.88;5078747;28;20040;-78
2023/12/20 06:43:57;;;;;;;38.70;6.25;;;;;;;6.84;100.00;101360.41;5093034;27;20040;-76
2023/12/20 06:46:26;;;;;;;25.85;6.22;;;;;;;6.82;100.00;101367.53;5092819;27;20035;-76
2023/12/20 06:48:51;;;;;;;30.38;5.47;;;;;;;6.88;100.00;101362.88;5092197;27;20035;-76
2023/12/20 06:51:19;;;;;;;32.30;6.45;;;;;;;6.90;100.00;101370.78;5094542;27;20071;-77
2023/12/20 06:53:45;;;;;;;29.80;6.03;;;;;;;6.92;100.00;101372.41;5095153;27;20048;-77
2023/12/20 06:56:11;;;;;;;44.53;7.10;;;;;;;6.90;100.00;101362.81;5081554;28;20032;-77
2023/12/20 06:58:37;;;;;;;37.65;7.63;;;;;;;6.88;100.00;101364.69;5067619;28;20049;-76
2023/12/20 07:01:11;;;;;;;35.65;7.00;;;;;;;6.89;100.00;101364.59;5088767;28;20032;-78
2023/12/20 07:03:36;;;;;;;35.47;6.13;;;;;;;6.86;100.00;101361.19;5088971;28;20060;-77
2023/12/20 07:06:08;;;;;;;35.85;5.97;;;;;;;6.81;100.00;101369.34;5071219;28;20043;-77
2023/12/20 07:08:37;;;;;;;32.65;6.60;;;;;;;6.82;100.00;101352.50;5071002;28;20036;-76
2023/12/20 07:11:09;;;;;;;32.70;6.22;;;;;;;6.80;100.00;101366.75;5086413;28;20507;-77
2023/12/20 07:13:38;;;;;;;30.23;5.97;;;;;;;6.78;100.00;101363.28;5088996;28;20570;-77
2023/12/20 07:16:06;;;;;;;33.42;7.00;;;;;;;6.85;100.00;101373.59;5083459;27;20077;-76
2023/12/20 07:18:38;;;;;;;39.50;6.63;;;;;;;6.78;100.00;101368.59;5084047;28;20494;-77
2023/12/20 07:21:07;;;;;;;35.67;6.63;;;;;;;6.77;100.00;101367.72;5085347;28;20032;-77
2023/12/20 07:23:33;;;;;;;23.38;5.75;;;;;;;6.86;100.00;101362.06;5084283;28;20035;-77
2023/12/20 07:25:59;;;;;;;50.72;8.10;;;;;;;6.82;100.00;101363.09;5073995;28;20560;-77
2023/12/20 07:28:24;;;;;;;24.23;5.97;;;;;;;6.84;100.00;101361.28;5090572;28;20166;-76
2023/12/20 07:30:50;;;;;;;28.40;5.85;;;;;;;6.85;100.00;101364.78;5083179;28;20281;-76
2023/12/20 07:33:16;;;;;;;38.85;5.97;;;;;;;6.85;100.00;101367.44;5085216;28;20577;-76
2023/12/20 07:35:41;;;;;;;35.13;6.85;;;;;;;6.89;100.00;101367.25;5077070;28;20111;-76
2023/12/20 07:38:07;;;;;;;34.88;5.82;;;;;;;6.91;100.00;101373.34;5058916;28;20056;-76
2023/12/20 07:40:33;;;;;;;33.72;7.50;;;;;;;6.85;100.00;101363.00;5090408;28;20078;-77
2023/12/20 07:42:58;;;;;;;43.92;8.05;;;;;;;6.88;100.00;101362.88;5057595;28;20071;-77
2023/12/20 07:45:24;;;;;;;28.98;6.80;;;;;;;6.85;100.00;101367.44;5090863;28;20032;-77
2023/12/20 07:47:52;;;;;;;39.97;7.20;;;;;;;6.90;100.00;101363.69;5038912;28;20445;-76
2023/12/20 07:50:18;;;;;;;34.80;6.10;;;;;;;6.92;100.00;101360.94;5090311;28;20040;-78
2023/12/20 07:52:43;;;;;;;28.77;6.22;;;;;;;6.90;100.00;101363.69;5091184;28;20048;-77
2023/12/20 07:55:09;;;;;;;25.33;6.38;;;;;;;6.94;100.00;101367.94;5071193;28;20048;-77
2023/12/20 07:57:38;;;;;;;33.33;6.45;;;;;;;6.91;100.00;101368.03;5073035;28;20028;-78
2023/12/20 08:00:07;;;;;;;39.42;5.95;;;;;;;6.88;100.00;101364.69;5077968;28;20082;-78
2023/12/20 08:02:41;;;;;;;33.08;6.22;;;;;;;6.84;100.00;101366.56;5091138;28;20860;-77
2023/12/20 08:05:07;;;;;;;42.05;6.50;;;;;;;6.90;100.00;101373.41;5056897;28;20036;-77
2023/12/20 08:07:33;;;;;;;23.98;5.97;;;;;;;6.85;100.00;101375.38;5081330;28;20033;-77
2023/12/20 08:09:59;;;;;;;27.70;5.53;;;;;;;6.98;100.00;101374.00;5067566;28;20043;-77
2023/12/20 08:12:27;;;;;;;35.95;6.75;;;;;;;6.88;100.00;101383.22;5079602;28;20036;-77
2023/12/20 08:14:53;;;;;;;32.45;7.30;;;;;;;6.95;100.00;101376.75;5069144;28;20070;-77
2023/12/20 08:17:23;;;;;;;30.70;6.18;;;;;;;6.95;100.00;101376.75;5069566;28;20028;-77
2023/12/20 08:19:51;;;;;;;46.42;6.70;;;;;;;6.97;100.00;101377.53;5082684;28;20118;-77
2023/12/20 08:22:17;;;;;;;34.63;6.72;;;;;;;7.01;100.00;101380.00;5070053;28;20166;-77
2023/12/20 08:24:42;;;;;;;33.80;7.13;;;;;;;7.05;100.00;101380.75;5065423;28;20123;-77
2023/12/20 08:27:09;;;;;;;32.80;6.85;;;;;;;7.07;100.00;101378.03;5065789;28;20040;-77
2023/12/20 08:29:38;;;;;;;40.30;6.88;;;;;;;7.06;100.00;101376.31;5072808;28;20124;-78
2023/12/20 08:32:13;;;;;;;34.22;5.55;;;;;;;7.10;100.00;101378.78;5090078;28;20036;-76
2023/12/20 08:34:41;;;;;;;32.45;6.93;;;;;;;7.12;100.00;101368.97;5067450;28;20113;-77
2023/12/20 08:37:13;;;;;;;31.92;6.60;;;;;;;7.20;100.00;101371.31;5073354;28;20042;-77
2023/12/20 08:39:38;;;;;;;30.50;6.55;;;;;;;7.18;100.00;101360.78;5096050;28;20147;-76
2023/12/20 08:42:07;;;;;;;32.05;6.75;;;;;;;7.21;100.00;101365.09;5070677;28;20343;-76
2023/12/20 08:44:33;;;;;;;30.42;5.72;;;;;;;7.25;100.00;101361.38;5078863;28;20118;-78
2023/12/20 08:46:58;;;;;;;37.67;6.55;;;;;;;7.22;100.00;101361.50;5081070;28;20044;-77
2023/12/20 08:49:25;;;;;;;31.10;6.30;;;;;;;7.24;100.00;101347.25;5073405;28;20047;-76
2023/12/20 08:51:53;;;;;;;31.17;6.63;;;;;;;7.21;100.00;101347.38;5085245;28;20029;-77
2023/12/20 08:54:19;;;;;;;30.35;6.10;;;;;;;7.24;100.00;101349.91;5095676;27;20051;-75
2023/12/20 08:56:46;;;;;;;35.90;5.57;;;;;;;7.34;100.00;101358.34;5088097;28;20028;-77
2023/12/20 08:59:15;;;;;;;31.77;5.50;;;;;;;7.34;100.00;101350.41;5093281;27;20134;-76
2023/12/20 09:01:40;;;;;;;35.65;5.57;;;;;;;7.25;100.00;101345.47;5097944;27;20044;-78
2023/12/20 09:04:09;;;;;;;49.67;7.20;;;;;;;7.24;100.00;101349.06;5090599;27;20095;-78
2023/12/20 09:06:34;;;;;;;30.67;5.78;;;;;;;7.29;100.00;101354.19;5090468;27;20028;-78
2023/12/20 09:09:00;;;;;;;49.85;6.80;;;;;;;7.27;100.00;101348.91;5104482;27;20039;-78
2023/12/20 09:11:26;;;;;;;40.15;8.10;;;;;;;7.15;100.00;101354.72;5098811;27;20075;-78
2023/12/20 09:13:51;;;;;;;32.40;6.70;;;;;;;7.22;100.00;101361.50;5109539;27;20050;-77
2023/12/20 09:16:17;;;;;;;33.38;7.38;;;;;;;7.19;100.00;101362.50;5098798;27;20032;-76
2023/12/20 09:18:43;;;;;;;28.73;6.35;;;;;;;7.12;100.00;101370.75;5094044;27;20789;-77
2023/12/20 09:21:08;;;;;;;26.55;6.45;;;;;;;7.10;100.00;101369.97;5113878;27;20910;-77
2023/12/20 09:23:34;;;;;;;46.63;7.45;;;;;;;7.06;100.00;101371.88;5114084;27;20430;-78
2023/12/20 09:26:02;;;;;;;32.03;6.60;;;;;;;7.01;100.00;101369.41;5090399;27;20747;-79
2023/12/20 09:28:28;;;;;;;43.35;8.23;;;;;;;7.04;100.00;101379.03;5108766;27;20028;-77
2023/12/20 09:30:54;;;;;;;32.95;6.63;;;;;;;6.97;100.00;101372.22;5111948;27;20032;-77
2023/12/20 09:33:19;;;;;;;45.05;6.93;;;;;;;7.03;100.00;101374.66;5104235;27;20472;-77
2023/12/20 09:35:45;;;;;;;41.08;7.95;;;;;;;6.94;100.00;101377.69;5074610;27;20914;-77
2023/12/20 09:38:12;;;;;;;44.28;7.88;;;;;;;7.01;100.00;101380.00;5089225;27;20046;-77
2023/12/20 09:40:42;;;;;;;43.47;7.10;;;;;;;7.01;100.00;101387.97;5097004;27;20031;-76
2023/12/20 09:43:11;;;;;;;30.20;8.00;;;;;;;7.04;100.00;101388.78;5106341;27;20582;-76
2023/12/20 09:45:38;;;;;;;43.33;8.25;;;;;;;6.96;100.00;101387.28;5088796;28;20044;-77
2023/12/20 09:48:08;;;;;;;34.97;6.45;;;;;;;6.93;100.00;101374.16;5105891;27;20746;-77
2023/12/20 09:50:33;;;;;;;36.80;6.80;;;;;;;7.04;100.00;101391.44;5104906;27;20221;-76
2023/12/20 09:53:01;;;;;;;33.47;7.25;;;;;;;6.93;100.00;101387.44;5106450;27;20116;-77
2023/12/20 09:55:32;;;;;;;32.70;6.80;;;;;;;6.98;100.00;101389.91;5105756;27;20078;-78
2023/12/20 09:57:59;;;;;;;37.03;6.60;;;;;;;6.91;100.00;101399.84;5112943;27;20059;-78
2023/12/20 10:00:33;;;;;;;36.22;6.30;;;;;;;6.93;100.00;101413.06;5110750;27;20129;-77
2023/12/20 10:03:02;;;;;;;35.08;7.82;;;;;;;7.00;100.00;101404.81;5112550;27;20125;-78
2023/12/20 10:05:42;;;;;;;47.28;7.30;;;;;;;6.97;100.00;101409.34;5108812;27;20039;-77
2023/12/20 10:08:08;;;;;;;35.28;7.47;;;;;;;6.98;100.00;101406.66;5091120;27;20047;-76
2023/12/20 10:10:34;;;;;;;30.05;6.22;;;;;;;6.98;100.00;101403.16;5091431;27;20884;-77
2023/12/20 10:13:10;;;;;;;42.42;7.50;;;;;;;6.96;100.00;101402.34;5106173;27;20047;-78
2023/12/20 10:15:37;;;;;;;38.45;6.55;;;;;;;6.91;100.00;101407.81;5101852;27;20044;-76
2023/12/20 10:18:04;;;;;;;40.80;6.00;;;;;;;6.96;100.00;101410.28;5105343;27;21329;-76
2023/12/20 10:20:38;;;;;;;38.60;7.50;;;;;;;6.97;100.00;101412.88;5101539;27;20052;-78
2023/12/20 10:23:06;;;;;;;42.03;7.20;;;;;;;6.98;100.00;101406.66;5109786;27;20085;-77
2023/12/20 10:25:32;;;;;;;38.67;7.05;;;;;;;7.05;100.00;101401.97;5105753;27;20106;-76
2023/12/20 10:28:18;;;;;;;41.20;7.32;;;;;;;7.08;100.00;101411.56;5107410;27;20032;-77
2023/12/20 10:30:49;;;;;;;38.47;6.68;;;;;;;7.11;100.00;101412.31;5090988;28;20028;-77
2023/12/20 10:33:24;;;;;;;30.88;6.50;;;;;;;7.14;100.00;101408.72;5108952;27;20035;-78
2023/12/20 10:35:50;;;;;;;33.72;6.72;;;;;;;7.19;100.00;101409.38;5084266;27;20345;-78
2023/12/20 10:38:16;;;;;;;37.13;6.47;;;;;;;7.18;100.00;101410.31;5109820;27;20091;-77
2023/12/20 10:40:49;;;;;;;37.47;6.63;;;;;;;7.29;100.00;101404.56;5107518;27;20038;-78
2023/12/20 10:43:15;;;;;;;37.08;7.43;;;;;;;7.39;100.00;101393.53;5106037;27;20105;-77
2023/12/20 10:45:42;;;;;;;36.65;6.60;;;;;;;7.32;100.00;101393.81;5098484;27;20054;-78
2023/12/20 10:48:11;;;;;;;37.95;7.82;;;;;;;7.27;100.00;101389.56;5095815;27;20038;-78
2023/12/20 10:50:41;;;;;;;34.30;6.55;;;;;;;7.44;100.00;101386.22;5111287;27;20042;-76
2023/12/20 10:53:07;;;;;;;39.60;8.27;;;;;;;7.47;100.00;101374.63;5108253;27;20664;-78
2023/12/20 10:55:36;;;;;;;37.22;7.75;;;;;;;7.41;100.00;101374.88;5116362;27;21054;-78
2023/12/20 10:58:07;;;;;;;40.33;7.38;;;;;;;7.32;100.00;101368.16;5103501;27;20032;-77
2023/12/20 11:00:41;;;;;;;33.60;6.28;;;;;;;7.36;100.00;101380.38;5090536;27;20028;-78
2023/12/20 11:03:15;;;;;;;40.90;7.10;;;;;;;7.35;100.00;101369.84;5113276;27;20032;-77
2023/12/20 11:06:10;;;;;;;48.55;6.90;;;;;;;7.27;100.00;101367.47;5111236;27;20039;-76
2023/12/20 11:08:44;;;;;;;34.03;6.40;;;;;;;7.32;100.00;101373.47;5092359;27;20040;-78
2023/12/20 11:11:23;;;;;;;43.42;6.97;;;;;;;7.29;100.00;101373.59;5105076;27;20155;-78
2023/12/20 11:14:12;;;;;;;35.30;6.53;;;;;;;7.34;100.00;101365.47;5094989;27;20171;-80
2023/12/20 11:16:41;;;;;;;40.38;7.20;;;;;;;7.42;100.00;101368.63;5111692;27;20051;-79
2023/12/20 11:19:07;;;;;;;34.47;7.15;;;;;;;7.49;100.00;101364.81;5094689;27;21196;-81
2023/12/20 11:21:33;;;;;;;30.08;6.10;;;;;;;7.50;100.00;101355.91;5094375;27;20089;-77